x

Virginia Beach 64 Nm East Of Virginia Beach, Va (44014) Wave Buoy

6:50am - Wed 17th Sep 2014 All times are EDT. -4 hours from GMT.

  • Sig Wave height 3.6ft
  • Swell Direction
  • Peak Period 14s
  • Average Period 6s
  • Wind
    16mph, 20mph gusts
  • Sea Temp 77°f
  • Air Temp 73°f
  • Sea Pressure 1014.4mb
  • Virginia Beach 64 Nm East Of Virginia Beach, Va
  • Virginia Beach 64 Nm East Of Virginia Beach, Va

More Historic Weather Station data

Upgrade to MSW Pro to gain access to the past 30 days of data for over 8000 Wavebouys and Weather Stations around the globe.

Join Pro

Comparision Forecast

View Surf forecast
   
Wed 09/17 6:50am 3.5ft 14s 6s 16 20 mph 1014.4mb 77f 73f
5:50am 3ft 15s 6s 16 20 mph 1014mb 78f 73f
4:50am 3ft 16s 6s 13 18 mph 1014.2mb 77f 74f
3:50am 2.5ft 12s 6s 13 16 mph 1014mb 77f 74f
2:50am 2.5ft 14s 6s 9 11 mph 1014.5mb 77f 74f
1:50am 2.5ft 16s 6s 11 13 mph 1014.4mb 78f 74f
12:50am 2.5ft 15s 5s 11 13 mph 1014.4mb 78f 74f
Tue 09/16 11:50pm 2.5ft 13s 5s 11 13 mph 1014.9mb 79f 74f
10:50pm 2.5ft 13s 5s 13 16 mph 1014.8mb 79f 74f
9:50pm 2.5ft 13s 5s 11 16 mph 1014.7mb 79f 75f
8:50pm 2.5ft 13s 4s 11 13 mph 1014.8mb 79f 75f
7:50pm 2.5ft 13s 5s 11 16 mph 1014.2mb 79f 75f
6:50pm 2.5ft 14s 4s 11 13 mph 1014.2mb 79f 75f
5:50pm 2.5ft 13s 4s 16 18 mph 1014.1mb 79f 74f
4:50pm 2.5ft 13s 4s 16 20 mph 1014.1mb 79f 74f
3:50pm 2ft 12s 4s 13 16 mph 1014.1mb 79f 74f
2:50pm 2.5ft 13s 4s 11 13 mph 1014.4mb 79f 74f
1:50pm 2ft 8s 4s 13 16 mph 1014.7mb 79f 74f
12:50pm 2.5ft 12s 4s 13 16 mph 1014.9mb 79f 74f
11:50am 2ft 13s 4s 13 16 mph 1015.5mb 79f 74f
10:50am 2ft 8s 4s 13 16 mph 1016.1mb 79f 74f
9:50am 2ft 7s 4s 13 18 mph 1016.4mb 79f 74f
8:50am 1.6ft 8s 4s 11 16 mph 1016.6mb 78f 74f
7:50am 1.6ft 8s 5s 11 13 mph 1016.7mb 78f 74f
6:50am 2ft 7s 6s 9 11 mph 1016.9mb 79f 73f
5:50am 2ft 13s 6s 7 11 mph 1016.9mb 79f 73f
4:50am 2ft 7s 6s 9 13 mph 1016.9mb 79f 73f
3:50am 2ft 7s 6s 9 11 mph 1016.8mb 79f 73f
2:50am 2ft 7s 6s 9 11 mph 1017.2mb 79f 73f
1:50am 2ft 8s 6s 7 9 mph 1017.7mb 79f 72f
12:50am 2ft 8s 5s 4 7 mph 1018.6mb 79f 71f
Mon 09/15 11:50pm 2.5ft 8s 5s 2 4 mph 1019.5mb 79f 71f
10:50pm 2.5ft 8s 5s 7
mph
1019.9mb 79f 71f
9:50pm 2.5ft 8s 5s 7 9 mph 1020.1mb 79f 71f
8:50pm 2.5ft 7s 5s 9 11 mph 1020.1mb 79f 71f
7:50pm 2.5ft 7s 5s 9 13 mph 1019.9mb 79f 71f
6:50pm 2.5ft 7s 5s 9 11 mph 1020.2mb 79f 71f
5:50pm 2.5ft 8s 5s 9 13 mph 1020.4mb 79f 71f
4:50pm 2.5ft 7s 5s 9 11 mph 1020.6mb 80f 71f
3:50pm 2.5ft 7s 5s 7 11 mph 1020.6mb 79f 71f
2:50pm 2.5ft 7s 5s 9 13 mph 1021mb 80f 70f
1:50pm 2.5ft 8s 5s 9 13 mph 1021.8mb 80f 70f
12:50pm 2.5ft 6s 4s 11 16 mph 1022mb 80f 70f
11:50am 2.5ft 6s 4s 11 16 mph 1022.3mb 80f 70f
10:50am 3ft 6s 4s 16 20 mph 1022.7mb 80f 71f
9:50am 3ft 6s 4s 13 18 mph 1022.7mb 80f 71f
8:50am 2.5ft 7s 4s 16 18 mph 1022.6mb 79f 71f
7:50am 2.5ft 6s 4s 16 20 mph 1022.6mb 80f 71f
6:50am 2.5ft 7s 4s 16 18 mph 1022.3mb 80f 71f
5:50am 2.5ft 7s 4s 13 18 mph 1021.9mb 79f 71f
4:50am 2.5ft 7s 4s 16 20 mph 1021.5mb 79f 71f
3:50am 2.5ft 7s 5s 13 18 mph 1021.2mb 79f 71f
2:50am 2.5ft 7s 5s 13 16 mph 1021.2mb 79f 71f
1:50am 3ft 7s 5s 11 13 mph 1021.5mb 79f 71f
12:50am 3ft 6s 5s 11 16 mph 1021.3mb 79f 71f
Sun 09/14 11:50pm 3.5ft 7s 5s 11 13 mph 1021.6mb 79f 70f
10:50pm 3.5ft 7s 5s 11 16 mph 1021.9mb 79f 70f
9:50pm 3.5ft 7s 5s 11 13 mph 1022.2mb 79f 71f
8:50pm 3.5ft 7s 5s 11 16 mph 1022.3mb 80f 70f
7:50pm 4ft 7s 5s 13 16 mph 1022.2mb 80f 70f
6:50pm 4ft 7s 5s 13 18 mph 1022mb 80f 70f
5:50pm 4.5ft 7s 5s 16 18 mph 1021.8mb 80f 71f
4:50pm 5ft 7s 5s 18 22 mph 1021.6mb 80f 71f
3:50pm 4.5ft 7s 5s 18 20 mph 1021.5mb 80f 71f
2:50pm 5ft 7s 5s 18 22 mph 1021.7mb 80f 71f
1:50pm 5.5ft 8s 5s 18 22 mph 1022.2mb 79f 71f
12:50pm 6ft 7s 5s 20 25 mph 1022.5mb 79f 71f
11:50am 6ft 7s 5s 20 25 mph 1022.5mb 79f 71f
10:50am 6ft 6s 5s 18 25 mph 1022.8mb 79f 72f
9:50am 6ft 7s 5s 22 25 mph 1022.4mb 79f 72f
8:50am 5.5ft 6s 5s 25 27 mph 1021.5mb 79f 72f
7:50am 5ft 6s 5s 25 27 mph 1021.6mb 78f 73f
6:50am 4.5ft 7s 5s 20 25 mph 1021.2mb 77f 73f
5:50am 5ft 6s 5s 18 22 mph 1020.6mb 77f 73f
4:50am 5ft 6s 5s 20 25 mph 1019.9mb 77f 72f
3:50am 5ft 6s 5s 22 27 mph 1019.4mb 76f 72f
2:50am 5ft 5s 4s 22 25 mph 1019.3mb 76f 72f
1:50am 4.5ft 5s 4s 20 25 mph 1019.2mb 77f 72f
12:50am 4ft 4s 4s 22 25 mph 1019.1mb 77f 73f
Sat 09/13 11:50pm 3ft 7s 4s 22 27 mph 1019.4mb 77f 73f
10:50pm 2ft 6s 5s 25 29 mph 1019mb 78f 73f
9:50pm 2ft 7s 5s 18 20 mph 1018.4mb 78f 74f
8:50pm 2.5ft 6s 5s 9
mph
1018.2mb 78f 77f
7:50pm 2.5ft 6s 5s 4 7 mph 1018.2mb 78f 78f
6:50pm 2.5ft 6s 5s 4 7 mph 1017mb 78f 78f
5:50pm 2ft 6s 5s 4
mph
1017.4mb 79f 78f
4:50pm 2.5ft 6s 5s 7 9 mph 1017mb 79f 78f
3:50pm 2.5ft 6s 5s 4
mph
1016.8mb 79f 78f
2:50pm 2.5ft 6s 5s 7 9 mph 1017.1mb 78f 77f
1:50pm 2.5ft 6s 5s 9
mph
1017.8mb 78f 77f
12:50pm 2.5ft 6s 5s 9
mph
1018.1mb 78f 77f
11:50am 2.5ft 6s 5s 4 7 mph 1018.1mb 78f 78f